Terminal Aerodrome Forecast
Issued by NWS

Home | Current Version | Previous Version | Text Only | Print | Product List | Glossary On
Versions: 1 2 3 4 5 6 7 8 9 10 11 12 13 14 15 16 17 18 19 20 21 22 23 24 25 26 27 28 29 30 31 32
366
FTAK31 PANC 092110 AAA
TAFADU
TAF AMD
PADU 092110Z 0921/1018 10029G46KT 5SM -RA BR BKN020 OVC027
     FM100200 10018G30KT 5SM -SHRA BR BKN015
     FM100600 08014G22KT P6SM VCSH BKN035
     FM101200 04012KT P6SM -SHRA OVC025=

USA.gov is the U.S. government's official web portal to all federal, state and local government web resources and services.